createdAt,value
2019-06-26T00:00:06.453Z,18.66
2019-06-26T00:01:07.297Z,18.73
2019-06-26T00:02:06.429Z,18.80
2019-06-26T00:03:06.498Z,18.75
2019-06-26T00:04:06.486Z,18.71
2019-06-26T00:05:06.471Z,18.71
2019-06-26T00:06:06.369Z,18.77
2019-06-26T00:07:06.447Z,18.71
2019-06-26T00:08:06.281Z,18.66
2019-06-26T00:09:07.284Z,18.60
2019-06-26T00:10:06.464Z,18.75
2019-06-26T00:11:06.237Z,18.71
2019-06-26T00:12:06.208Z,18.58
2019-06-26T00:13:06.201Z,18.56
2019-06-26T00:14:06.343Z,18.60
2019-06-26T00:15:06.254Z,18.68
2019-06-26T00:16:06.276Z,18.71
2019-06-26T00:17:06.290Z,18.70
2019-06-26T00:18:06.217Z,18.74
2019-06-26T00:19:06.242Z,18.71
2019-06-26T00:20:06.272Z,18.75
2019-06-26T00:21:06.250Z,18.70
2019-06-26T00:22:06.306Z,18.73
2019-06-26T00:23:06.215Z,18.71
2019-06-26T00:24:06.223Z,18.58
2019-06-26T00:25:06.094Z,18.65
2019-06-26T00:26:06.800Z,18.71
2019-06-26T00:27:06.140Z,18.66
2019-06-26T00:28:06.768Z,18.65
2019-06-26T00:29:06.125Z,18.71
2019-06-26T00:30:06.697Z,18.68
2019-06-26T00:31:06.097Z,18.56
2019-06-26T00:32:06.091Z,18.56
2019-06-26T00:33:06.020Z,18.60
2019-06-26T00:34:07.872Z,18.59
2019-06-26T00:35:06.051Z,18.59
2019-06-26T00:36:06.050Z,18.59
2019-06-26T00:37:06.657Z,18.59
2019-06-26T00:38:06.044Z,18.56
2019-06-26T00:39:06.099Z,18.53
2019-06-26T00:40:08.783Z,18.55
2019-06-26T00:41:06.062Z,18.56
2019-06-26T00:42:06.034Z,18.55
2019-06-26T00:43:05.995Z,18.47
2019-06-26T00:44:06.696Z,18.44
2019-06-26T00:45:06.680Z,18.40
2019-06-26T00:46:05.956Z,18.41
2019-06-26T00:47:05.886Z,18.44
2019-06-26T00:48:06.043Z,18.41
2019-06-26T00:50:26.622Z,18.38
2019-06-26T00:51:27.946Z,18.40
2019-06-26T00:53:19.884Z,18.35
2019-06-26T00:56:13.148Z,18.38
2019-06-26T00:57:13.225Z,18.37
2019-06-26T00:59:07.036Z,18.38
2019-06-26T01:00:06.445Z,18.41
2019-06-26T01:01:07.050Z,18.43
2019-06-26T01:02:06.918Z,18.43
2019-06-26T01:03:06.438Z,18.44
2019-06-26T01:04:06.322Z,18.40
2019-06-26T01:05:06.390Z,18.47
2019-06-26T01:06:06.222Z,18.44
2019-06-26T01:07:06.460Z,18.45
2019-06-26T01:08:06.323Z,18.40
2019-06-26T01:09:06.290Z,18.44
2019-06-26T01:10:06.313Z,18.37
2019-06-26T01:11:06.291Z,18.41
2019-06-26T01:12:06.225Z,18.41
2019-06-26T01:13:06.339Z,18.47
2019-06-26T01:14:06.496Z,18.45
2019-06-26T01:15:06.262Z,18.47
2019-06-26T01:16:06.991Z,18.41
2019-06-26T01:17:06.387Z,18.40
2019-06-26T01:18:06.303Z,18.40
2019-06-26T01:19:06.241Z,18.40
2019-06-26T01:20:09.060Z,18.34
2019-06-26T01:21:06.213Z,18.43
2019-06-26T01:22:06.975Z,18.37
2019-06-26T01:23:06.182Z,18.33
2019-06-26T01:25:07.103Z,18.37
2019-06-26T01:26:06.139Z,18.37
2019-06-26T01:27:06.129Z,18.38
2019-06-26T01:28:06.174Z,18.41
2019-06-26T01:29:06.134Z,18.43
2019-06-26T01:30:06.023Z,18.40
2019-06-26T01:31:06.150Z,18.38
2019-06-26T01:32:13.140Z,18.41
2019-06-26T01:33:06.237Z,18.40
2019-06-26T01:34:06.970Z,18.41
2019-06-26T01:35:05.980Z,18.37
2019-06-26T01:36:05.990Z,18.41
2019-06-26T01:37:06.031Z,18.43
2019-06-26T01:38:06.078Z,18.45
2019-06-26T01:39:06.021Z,18.50
2019-06-26T01:40:06.029Z,18.52
2019-06-26T01:41:06.015Z,18.43
2019-06-26T01:42:05.942Z,18.53
2019-06-26T01:43:05.888Z,18.50
2019-06-26T01:44:14.886Z,18.50
2019-06-26T01:45:06.516Z,18.58
2019-06-26T01:46:05.974Z,18.50
2019-06-26T01:47:06.090Z,18.56
2019-06-26T01:48:05.956Z,18.56
2019-06-26T01:49:05.984Z,18.55
2019-06-26T01:50:05.831Z,18.60
2019-06-26T01:51:05.900Z,18.58
2019-06-26T01:52:06.047Z,18.53
2019-06-26T01:53:05.921Z,18.55
2019-06-26T01:54:06.548Z,18.55
2019-06-26T01:55:05.844Z,18.68
2019-06-26T01:56:05.788Z,18.60
2019-06-26T01:57:05.770Z,18.70
2019-06-26T01:58:05.748Z,18.86
2019-06-26T01:59:07.552Z,18.71
2019-06-26T02:00:05.746Z,18.77
2019-06-26T02:01:05.757Z,18.83
2019-06-26T02:02:05.789Z,18.80
2019-06-26T02:03:05.691Z,18.74
2019-06-26T02:04:05.778Z,18.86
2019-06-26T02:05:05.854Z,18.77
2019-06-26T02:06:05.703Z,18.75
2019-06-26T02:07:05.788Z,18.81
2019-06-26T02:08:06.513Z,18.80
2019-06-26T02:09:05.784Z,18.83
2019-06-26T02:10:05.651Z,18.95
2019-06-26T02:11:05.701Z,18.98
2019-06-26T02:12:06.528Z,18.96
2019-06-26T02:13:05.535Z,19.02
2019-06-26T02:14:05.692Z,19.00
2019-06-26T02:16:05.508Z,18.93
2019-06-26T02:17:08.571Z,18.78
2019-06-26T02:18:05.574Z,18.83
2019-06-26T02:19:05.667Z,18.74
2019-06-26T02:20:05.503Z,18.77
2019-06-26T02:21:05.557Z,18.83
2019-06-26T02:22:05.570Z,18.81
2019-06-26T02:24:16.095Z,18.78
2019-06-26T02:25:05.579Z,18.88
2019-06-26T02:26:05.582Z,18.90
2019-06-26T02:27:05.963Z,18.98
2019-06-26T02:28:05.455Z,18.92
2019-06-26T02:29:05.603Z,18.89
2019-06-26T02:30:06.053Z,18.89
2019-06-26T02:31:05.533Z,18.90
2019-06-26T02:32:05.444Z,18.83
2019-06-26T02:33:05.488Z,18.80
2019-06-26T02:34:05.389Z,18.77
2019-06-26T02:35:09.312Z,18.77
2019-06-26T02:36:05.437Z,18.78
2019-06-26T02:37:06.077Z,18.77
2019-06-26T02:38:05.299Z,18.77
2019-06-26T02:39:05.324Z,18.80
2019-06-26T02:40:05.460Z,18.66
2019-06-26T02:41:05.251Z,18.74
2019-06-26T02:42:05.376Z,18.65
2019-06-26T02:43:07.185Z,18.56
2019-06-26T02:44:05.353Z,18.66
2019-06-26T02:45:05.348Z,18.60
2019-06-26T02:46:06.119Z,18.59
2019-06-26T02:47:18.785Z,18.74
2019-06-26T02:48:05.240Z,18.73
2019-06-26T02:49:05.263Z,18.71
2019-06-26T02:50:05.466Z,18.75
2019-06-26T02:51:05.337Z,18.83
2019-06-26T02:52:05.202Z,18.77
2019-06-26T02:53:06.081Z,18.77
2019-06-26T02:54:05.310Z,18.80
2019-06-26T02:55:05.281Z,18.83
2019-06-26T02:56:05.111Z,18.81
2019-06-26T02:57:05.254Z,18.88
2019-06-26T02:58:05.111Z,18.86
2019-06-26T02:59:06.132Z,18.78
2019-06-26T03:00:05.242Z,18.90
2019-06-26T03:01:05.174Z,18.92
2019-06-26T03:02:06.160Z,18.93
2019-06-26T03:03:05.085Z,18.99
2019-06-26T03:04:05.158Z,19.08
2019-06-26T03:05:05.073Z,19.12
2019-06-26T03:06:05.076Z,19.11
2019-06-26T03:07:05.084Z,19.21
2019-06-26T03:08:06.601Z,19.16
2019-06-26T03:09:04.953Z,19.31
2019-06-26T03:10:05.087Z,19.30
2019-06-26T03:11:05.120Z,19.22
2019-06-26T03:12:05.121Z,19.36
2019-06-26T03:13:05.100Z,19.36
2019-06-26T03:14:05.060Z,19.31
2019-06-26T03:15:09.396Z,19.34
2019-06-26T03:16:05.441Z,19.33
2019-06-26T03:17:05.000Z,19.36
2019-06-26T03:18:07.684Z,19.27
2019-06-26T03:19:04.984Z,19.30
2019-06-26T03:20:04.957Z,19.31
2019-06-26T03:21:05.019Z,19.30
2019-06-26T03:22:05.563Z,19.19
2019-06-26T03:23:04.881Z,19.24
2019-06-26T03:24:04.843Z,19.24
2019-06-26T03:25:05.693Z,19.22
2019-06-26T03:26:05.516Z,19.31
2019-06-26T03:27:04.841Z,19.24
2019-06-26T03:28:04.883Z,19.29
2019-06-26T03:29:05.616Z,19.18
2019-06-26T03:30:04.855Z,19.26
2019-06-26T03:31:04.792Z,19.30
2019-06-26T03:32:05.581Z,19.31
2019-06-26T03:33:04.783Z,19.39
2019-06-26T03:34:04.733Z,19.36
2019-06-26T03:35:04.744Z,19.27
2019-06-26T03:36:07.633Z,19.36
2019-06-26T03:37:04.677Z,19.36
2019-06-26T03:38:04.684Z,19.31
2019-06-26T03:39:04.890Z,19.34
2019-06-26T03:40:05.527Z,19.31
2019-06-26T03:41:04.861Z,19.44
2019-06-26T03:42:04.807Z,19.36
2019-06-26T03:43:04.822Z,19.36
2019-06-26T03:44:06.592Z,19.30
2019-06-26T03:45:06.627Z,19.31
2019-06-26T03:46:04.887Z,19.31
2019-06-26T03:47:05.554Z,19.39
2019-06-26T03:48:04.631Z,19.34
2019-06-26T03:49:04.624Z,19.27
2019-06-26T03:50:05.639Z,19.31
2019-06-26T03:51:04.789Z,19.24
2019-06-26T03:52:04.718Z,19.19
2019-06-26T03:53:04.706Z,19.18
2019-06-26T03:55:04.627Z,19.15
2019-06-26T03:56:04.460Z,19.00
2019-06-26T03:57:04.563Z,19.11
2019-06-26T03:58:04.585Z,19.08
2019-06-26T03:59:04.446Z,19.00
2019-06-26T04:00:04.639Z,19.08
2019-06-26T04:01:04.551Z,19.08
2019-06-26T04:02:04.486Z,19.09
2019-06-26T04:03:05.131Z,19.09
2019-06-26T04:04:04.443Z,19.07
2019-06-26T04:05:04.536Z,19.09
2019-06-26T04:06:04.471Z,19.11
2019-06-26T04:07:04.418Z,19.00
2019-06-26T04:08:06.066Z,19.02
2019-06-26T04:09:04.469Z,19.07
2019-06-26T04:10:07.190Z,19.12
2019-06-26T04:11:04.542Z,19.18
2019-06-26T04:12:04.418Z,19.16
2019-06-26T04:13:04.403Z,19.14
2019-06-26T04:14:05.049Z,19.22
2019-06-26T04:15:04.300Z,19.22
2019-06-26T04:16:04.428Z,19.34
2019-06-26T04:17:04.297Z,19.27
2019-06-26T04:18:05.184Z,19.24
2019-06-26T04:19:04.410Z,19.29
2019-06-26T04:20:04.239Z,19.26
2019-06-26T04:21:04.281Z,19.33
2019-06-26T04:22:05.031Z,19.36
2019-06-26T04:23:05.041Z,19.47
2019-06-26T04:24:07.094Z,19.47
2019-06-26T04:25:04.221Z,19.54
2019-06-26T04:26:04.342Z,19.58
2019-06-26T04:27:04.181Z,19.63
2019-06-26T04:28:06.359Z,19.58
2019-06-26T04:29:04.332Z,19.62
2019-06-26T04:30:04.207Z,19.58
2019-06-26T04:31:07.084Z,19.74
2019-06-26T04:32:04.251Z,19.74
2019-06-26T04:33:04.350Z,19.81
2019-06-26T04:34:04.218Z,19.74
2019-06-26T04:35:04.185Z,19.86
2019-06-26T04:36:05.076Z,19.82
2019-06-26T04:37:04.122Z,19.82
2019-06-26T04:38:04.211Z,19.82
2019-06-26T04:39:07.085Z,19.85
2019-06-26T04:40:04.233Z,19.84
2019-06-26T04:41:04.145Z,19.82
2019-06-26T04:42:04.237Z,19.91
2019-06-26T04:43:04.101Z,19.86
2019-06-26T04:44:03.963Z,19.99
2019-06-26T04:45:04.081Z,19.99
2019-06-26T04:46:04.021Z,20.02
2019-06-26T04:47:04.541Z,19.95
2019-06-26T04:48:07.062Z,19.99
2019-06-26T04:50:04.018Z,20.03
2019-06-26T04:51:03.976Z,20.00
2019-06-26T04:52:03.994Z,20.00
2019-06-26T04:53:04.036Z,20.00
2019-06-26T04:54:04.049Z,20.04
2019-06-26T04:55:03.997Z,20.03
2019-06-26T04:56:04.003Z,20.10
2019-06-26T04:57:03.984Z,20.16
2019-06-26T04:58:03.954Z,20.16
2019-06-26T04:59:03.934Z,20.13
2019-06-26T05:00:04.028Z,20.14
2019-06-26T05:01:04.067Z,20.13
2019-06-26T05:02:04.042Z,20.03
2019-06-26T05:03:03.915Z,20.04
2019-06-26T05:04:04.622Z,19.94
2019-06-26T05:05:04.663Z,19.86
2019-06-26T05:06:04.611Z,19.88
2019-06-26T05:07:03.817Z,19.76
2019-06-26T05:08:05.620Z,19.84
2019-06-26T05:09:03.875Z,19.81
2019-06-26T05:10:03.807Z,19.79
2019-06-26T05:11:03.770Z,19.81
2019-06-26T05:12:03.819Z,19.81
2019-06-26T05:13:03.774Z,19.82
2019-06-26T05:14:03.770Z,19.86
2019-06-26T05:15:03.810Z,19.89
2019-06-26T05:16:14.293Z,19.96
2019-06-26T05:17:03.797Z,19.99
2019-06-26T05:18:03.786Z,20.04
2019-06-26T05:20:03.762Z,20.03
2019-06-26T05:21:06.605Z,20.00
2019-06-26T05:22:03.695Z,19.99
2019-06-26T05:23:04.576Z,19.99
2019-06-26T05:24:04.604Z,19.99
2019-06-26T05:25:03.660Z,19.99
2019-06-26T05:26:04.606Z,19.89
2019-06-26T05:27:03.559Z,19.94
2019-06-26T05:28:03.717Z,19.95
2019-06-26T05:29:03.546Z,20.00
2019-06-26T05:30:03.625Z,20.02
2019-06-26T05:31:03.551Z,20.09
2019-06-26T05:32:03.784Z,20.13
2019-06-26T05:33:03.619Z,20.13
2019-06-26T05:34:03.556Z,20.13
2019-06-26T05:35:03.585Z,20.24
2019-06-26T05:36:04.139Z,20.29
2019-06-26T05:37:03.533Z,20.40
2019-06-26T05:39:04.122Z,20.43
2019-06-26T05:40:03.597Z,20.58
2019-06-26T05:41:03.628Z,20.55
2019-06-26T05:42:06.574Z,20.69
2019-06-26T05:43:03.648Z,20.66
2019-06-26T05:44:03.461Z,20.74
2019-06-26T05:45:03.430Z,20.82
2019-06-26T05:46:04.180Z,20.93
2019-06-26T05:47:06.877Z,20.84
2019-06-26T05:48:03.452Z,20.96
2019-06-26T05:49:03.539Z,21.02
2019-06-26T05:50:03.353Z,21.05
2019-06-26T05:51:03.388Z,21.14
2019-06-26T05:52:03.467Z,21.15
2019-06-26T05:53:03.541Z,21.32
2019-06-26T05:54:04.131Z,21.27
2019-06-26T05:55:03.390Z,21.32
2019-06-26T05:56:03.475Z,21.52
2019-06-26T05:57:03.414Z,21.45
2019-06-26T05:58:05.082Z,21.48
2019-06-26T05:59:03.293Z,21.30
2019-06-26T06:00:03.311Z,21.35
2019-06-26T06:01:03.306Z,21.32
2019-06-26T06:02:03.401Z,21.24
2019-06-26T06:03:03.333Z,21.18
2019-06-26T06:04:06.108Z,21.20
2019-06-26T06:05:03.394Z,21.12
2019-06-26T06:06:04.248Z,21.21
2019-06-26T06:07:03.143Z,21.30
2019-06-26T06:08:04.074Z,21.35
2019-06-26T06:09:06.177Z,21.40
2019-06-26T06:10:03.332Z,21.50
2019-06-26T06:11:03.154Z,21.66
2019-06-26T06:12:03.323Z,21.75
2019-06-26T06:13:03.267Z,21.80
2019-06-26T06:14:03.268Z,21.91
2019-06-26T06:15:03.214Z,21.99
2019-06-26T06:16:06.210Z,21.95
2019-06-26T06:17:03.253Z,21.92
2019-06-26T06:18:03.292Z,21.75
2019-06-26T06:19:03.078Z,21.77
2019-06-26T06:20:03.170Z,21.69
2019-06-26T06:21:04.726Z,21.75
2019-06-26T06:22:03.144Z,21.70
2019-06-26T06:23:03.080Z,21.72
2019-06-26T06:24:03.092Z,21.76
2019-06-26T06:25:03.147Z,21.75
2019-06-26T06:26:03.080Z,21.79
2019-06-26T06:27:03.016Z,21.98
2019-06-26T06:28:03.142Z,22.02
2019-06-26T06:29:03.135Z,22.15
2019-06-26T06:30:03.091Z,22.10
2019-06-26T06:31:09.605Z,22.23
2019-06-26T06:32:03.172Z,22.25
2019-06-26T06:33:03.081Z,22.30
2019-06-26T06:34:03.126Z,22.39
2019-06-26T06:35:02.984Z,22.50
2019-06-26T06:36:03.605Z,22.55
2019-06-26T06:37:02.979Z,22.57
2019-06-26T06:38:03.851Z,22.57
2019-06-26T06:39:03.085Z,22.51
2019-06-26T06:40:02.977Z,22.33
2019-06-26T06:41:03.774Z,22.25
2019-06-26T06:42:02.868Z,22.08
2019-06-26T06:43:02.922Z,22.06
2019-06-26T06:44:02.879Z,22.02
2019-06-26T06:45:02.906Z,21.91
2019-06-26T06:46:03.223Z,21.93
2019-06-26T06:47:04.564Z,21.79
2019-06-26T06:48:03.699Z,21.80
2019-06-26T06:49:02.904Z,21.82
2019-06-26T06:50:02.864Z,21.77
2019-06-26T06:51:02.879Z,21.76
2019-06-26T06:52:03.652Z,21.66
2019-06-26T06:53:02.808Z,21.67
2019-06-26T06:54:03.688Z,21.69
2019-06-26T06:55:02.905Z,21.73
2019-06-26T06:56:03.807Z,21.70
2019-06-26T06:57:02.961Z,21.77
2019-06-26T06:58:03.674Z,21.80
2019-06-26T06:59:02.785Z,21.80
2019-06-26T07:00:02.910Z,21.69
2019-06-26T07:01:02.824Z,21.77
2019-06-26T07:02:03.745Z,21.79
2019-06-26T07:03:02.954Z,21.91
2019-06-26T07:04:02.751Z,21.91
2019-06-26T07:05:02.865Z,21.95
2019-06-26T07:06:02.772Z,21.92
2019-06-26T07:07:02.762Z,21.92
2019-06-26T07:08:02.921Z,21.95
2019-06-26T07:09:05.600Z,21.88
2019-06-26T07:10:02.789Z,21.79
2019-06-26T07:11:03.730Z,21.82
2019-06-26T07:12:02.790Z,21.83
2019-06-26T07:13:02.741Z,21.77
2019-06-26T07:14:02.718Z,21.82
2019-06-26T07:15:02.587Z,21.83
2019-06-26T07:16:02.610Z,21.82
2019-06-26T07:17:15.927Z,21.79
2019-06-26T07:18:02.584Z,21.76
2019-06-26T07:19:03.176Z,21.82
2019-06-26T07:20:03.089Z,21.77
2019-06-26T07:21:02.600Z,21.77
2019-06-26T07:22:02.605Z,21.73
2019-06-26T07:23:02.608Z,21.73
2019-06-26T07:24:02.606Z,21.75
2019-06-26T07:25:03.083Z,21.72
2019-06-26T07:26:02.657Z,21.73
2019-06-26T07:27:02.524Z,21.82
2019-06-26T07:28:02.738Z,21.72
2019-06-26T07:29:02.592Z,21.79
2019-06-26T07:30:02.675Z,21.89
2019-06-26T07:31:03.108Z,21.91
2019-06-26T07:32:03.249Z,21.93
2019-06-26T07:33:02.545Z,22.08
2019-06-26T07:34:02.451Z,21.99
2019-06-26T07:35:02.466Z,22.10
2019-06-26T07:36:07.343Z,22.22
2019-06-26T07:37:04.155Z,22.23
2019-06-26T07:38:02.404Z,22.18
2019-06-26T07:39:04.291Z,22.17
2019-06-26T07:40:02.574Z,22.13
2019-06-26T07:41:03.377Z,22.04
2019-06-26T07:42:02.327Z,22.08
2019-06-26T07:43:02.365Z,22.00
2019-06-26T07:44:02.441Z,22.02
2019-06-26T07:45:02.530Z,22.02
2019-06-26T07:46:02.374Z,21.95
2019-06-26T07:47:12.664Z,21.99
2019-06-26T07:48:02.378Z,22.08
2019-06-26T07:49:02.476Z,22.10
2019-06-26T07:50:03.406Z,22.26
2019-06-26T07:51:02.400Z,22.35
2019-06-26T07:52:02.352Z,22.48
2019-06-26T07:53:04.241Z,22.53
2019-06-26T07:54:03.209Z,22.39
2019-06-26T07:55:02.373Z,22.57
2019-06-26T07:56:02.348Z,22.50
2019-06-26T07:57:02.239Z,22.51
2019-06-26T07:58:02.172Z,22.45
2019-06-26T07:59:03.127Z,22.53
2019-06-26T08:00:02.508Z,22.53
2019-06-26T08:01:02.435Z,22.57
2019-06-26T08:02:02.242Z,22.69
2019-06-26T08:03:04.460Z,22.72
2019-06-26T08:04:02.187Z,22.78
2019-06-26T08:05:02.266Z,22.84
2019-06-26T08:06:02.195Z,22.93
2019-06-26T08:07:04.347Z,22.99
2019-06-26T08:08:02.721Z,23.03
2019-06-26T08:09:02.195Z,23.13
2019-06-26T08:10:02.351Z,23.05
2019-06-26T08:11:05.384Z,23.12
2019-06-26T08:12:02.320Z,23.21
2019-06-26T08:13:02.503Z,23.36
2019-06-26T08:14:02.718Z,23.55
2019-06-26T08:15:02.110Z,23.68
2019-06-26T08:16:02.253Z,24.01
2019-06-26T08:17:02.246Z,24.26
2019-06-26T08:18:02.285Z,24.53
2019-06-26T08:19:02.897Z,24.76
2019-06-26T08:20:02.136Z,24.95
2019-06-26T08:21:12.008Z,25.11
2019-06-26T08:22:02.668Z,25.43
2019-06-26T08:23:02.148Z,25.53
2019-06-26T08:24:03.765Z,25.68
2019-06-26T08:25:02.283Z,25.88
2019-06-26T08:26:02.216Z,26.07
2019-06-26T08:28:02.051Z,26.13
2019-06-26T08:29:02.188Z,26.18
2019-06-26T08:30:02.387Z,26.28
2019-06-26T08:31:02.720Z,26.21
2019-06-26T08:32:02.287Z,26.21
2019-06-26T08:33:02.010Z,26.25
2019-06-26T08:34:02.127Z,26.38
2019-06-26T08:35:02.108Z,26.52
2019-06-26T08:36:02.219Z,26.58
2019-06-26T08:37:02.196Z,26.71
2019-06-26T08:38:11.126Z,26.85
2019-06-26T08:39:02.136Z,27.05
2019-06-26T08:40:02.121Z,27.30
2019-06-26T08:41:02.101Z,27.54
2019-06-26T08:42:03.874Z,28.12
2019-06-26T08:43:02.197Z,28.52
2019-06-26T08:44:03.988Z,29.16
2019-06-26T08:45:02.255Z,29.38
2019-06-26T08:47:02.156Z,29.84
2019-06-26T08:48:16.829Z,30.63
2019-06-26T08:49:02.331Z,32.14
2019-06-26T08:50:02.462Z,34.03
2019-06-26T08:51:02.331Z,34.23
2019-06-26T08:53:02.986Z,33.77
2019-06-26T08:54:04.707Z,34.06
2019-06-26T08:55:02.213Z,34.77
2019-06-26T08:57:02.256Z,36.30
2019-06-26T08:58:02.136Z,38.34
2019-06-26T08:59:02.246Z,39.55
2019-06-26T09:00:02.154Z,40.26
2019-06-26T09:01:02.236Z,41.14
2019-06-26T09:02:02.242Z,41.68
2019-06-26T09:04:02.152Z,44.14
2019-06-26T09:07:02.222Z,43.39
2019-06-26T09:08:02.272Z,43.31
2019-06-26T09:10:02.277Z,44.76
2019-06-26T09:11:02.203Z,45.40
2019-06-26T09:13:02.231Z,43.03
2019-06-26T09:14:02.210Z,41.70
2019-06-26T09:15:02.222Z,40.69
2019-06-26T09:17:02.220Z,39.51
2019-06-26T09:18:02.119Z,38.76
2019-06-26T09:19:02.326Z,38.08
2019-06-26T09:20:02.789Z,37.48
2019-06-26T09:21:02.753Z,36.86
2019-06-26T09:22:02.274Z,36.28
2019-06-26T09:23:02.994Z,35.70
2019-06-26T09:24:02.249Z,35.18
2019-06-26T09:26:02.226Z,34.42
2019-06-26T09:27:02.384Z,34.18
2019-06-26T09:28:02.161Z,33.92
2019-06-26T09:29:02.242Z,33.49
2019-06-26T09:30:02.222Z,33.22
2019-06-26T09:34:02.189Z,32.78
2019-06-26T09:35:02.735Z,32.82
2019-06-26T09:36:05.953Z,32.82
2019-06-26T09:37:02.146Z,32.64
2019-06-26T09:38:03.074Z,32.49
2019-06-26T09:40:02.243Z,32.12
2019-06-26T09:42:02.767Z,31.66
2019-06-26T09:43:02.184Z,31.62
2019-06-26T09:44:02.177Z,31.61
2019-06-26T09:45:03.076Z,31.62
2019-06-26T09:47:02.186Z,32.11
2019-06-26T09:48:07.012Z,33.12
2019-06-26T09:49:02.189Z,34.73
2019-06-26T09:51:02.230Z,37.32
2019-06-26T09:52:02.160Z,38.08
2019-06-26T09:55:02.192Z,38.80
2019-06-26T09:56:02.161Z,38.65
2019-06-26T09:57:02.082Z,38.40
2019-06-26T09:58:02.135Z,39.18
2019-06-26T09:59:03.012Z,39.41
2019-06-26T10:00:02.123Z,39.34
2019-06-26T10:02:02.141Z,39.46
2019-06-26T10:04:02.188Z,39.85
2019-06-26T10:06:02.102Z,38.82
2019-06-26T10:10:02.208Z,37.01
2019-06-26T10:12:02.183Z,38.33
2019-06-26T10:13:02.169Z,39.06
2019-06-26T10:14:02.699Z,38.97
2019-06-26T10:15:02.169Z,38.65
2019-06-26T10:16:02.021Z,37.82
2019-06-26T10:17:02.161Z,37.58
2019-06-26T10:18:02.689Z,37.14
2019-06-26T10:20:02.154Z,37.21
2019-06-26T10:21:02.046Z,37.42
2019-06-26T10:23:02.166Z,37.82
2019-06-26T10:26:02.665Z,37.94
2019-06-26T10:28:02.547Z,38.57
2019-06-26T10:29:02.177Z,38.49
2019-06-26T10:31:02.180Z,37.42
2019-06-26T10:32:02.216Z,36.92
2019-06-26T10:33:02.131Z,36.67
2019-06-26T10:34:02.213Z,36.74
2019-06-26T10:35:02.596Z,37.11
2019-06-26T10:36:02.171Z,36.99
2019-06-26T10:37:02.096Z,36.86
2019-06-26T10:38:02.040Z,37.02
2019-06-26T10:39:02.146Z,36.96
2019-06-26T10:41:02.658Z,37.44
2019-06-26T10:42:02.130Z,37.51
2019-06-26T10:45:02.171Z,38.80
2019-06-26T10:47:02.101Z,38.96
2019-06-26T10:48:02.116Z,38.92
2019-06-26T10:50:02.091Z,38.83
2019-06-26T10:51:02.134Z,39.19
2019-06-26T10:55:02.144Z,38.17
2019-06-26T10:56:02.076Z,37.92
2019-06-26T10:57:02.161Z,38.05
2019-06-26T10:58:02.077Z,37.99
2019-06-26T10:59:02.023Z,37.55
2019-06-26T11:01:02.189Z,38.08
2019-06-26T11:02:02.656Z,40.05
2019-06-26T11:03:02.651Z,41.72
2019-06-26T11:04:02.660Z,42.48
2019-06-26T11:05:02.719Z,42.53
2019-06-26T11:06:03.777Z,42.72
2019-06-26T11:07:02.072Z,42.84
2019-06-26T11:08:02.037Z,42.88
2019-06-26T11:10:02.074Z,42.57
2019-06-26T11:11:02.085Z,42.10
2019-06-26T11:13:02.348Z,42.06
2019-06-26T11:14:02.172Z,41.94
2019-06-26T11:15:02.086Z,41.78
2019-06-26T11:17:02.119Z,41.95
2019-06-26T11:18:02.078Z,42.74
2019-06-26T11:19:02.642Z,43.41
2019-06-26T11:20:03.045Z,43.72
2019-06-26T11:21:02.181Z,43.57
2019-06-26T11:22:01.923Z,43.19
2019-06-26T11:23:02.077Z,42.51
2019-06-26T11:25:03.088Z,41.85
2019-06-26T11:26:03.038Z,41.41
2019-06-26T11:28:02.021Z,40.59
2019-06-26T11:29:02.153Z,40.27
2019-06-26T11:32:02.165Z,39.63
2019-06-26T11:33:02.378Z,39.53
2019-06-26T11:34:02.191Z,39.21
2019-06-26T11:37:04.166Z,39.11
2019-06-26T11:40:02.216Z,39.60
2019-06-26T11:41:02.183Z,39.63
2019-06-26T11:43:02.290Z,39.37
2019-06-26T11:45:02.166Z,38.48
2019-06-26T11:46:02.665Z,38.36
2019-06-26T11:48:02.169Z,37.82
2019-06-26T11:49:03.174Z,37.65
2019-06-26T11:50:02.119Z,37.49
2019-06-26T11:52:02.139Z,37.36
2019-06-26T11:53:02.142Z,37.23
2019-06-26T11:54:02.133Z,37.64
2019-06-26T11:56:02.125Z,37.03
2019-06-26T11:57:02.110Z,36.47
2019-06-26T11:59:02.083Z,36.14
2019-06-26T12:01:02.681Z,35.63
2019-06-26T12:05:02.132Z,34.67
2019-06-26T12:07:02.126Z,34.48
2019-06-26T12:08:02.108Z,34.39
2019-06-26T12:10:02.225Z,33.77
2019-06-26T12:11:03.170Z,33.57
2019-06-26T12:12:02.114Z,33.19
2019-06-26T12:13:03.998Z,33.05
2019-06-26T12:14:02.071Z,32.90
2019-06-26T12:15:02.119Z,32.75
2019-06-26T12:16:02.138Z,32.73
2019-06-26T12:17:02.083Z,32.58
2019-06-26T12:19:02.074Z,32.52
2019-06-26T12:20:17.270Z,32.43
2019-06-26T12:21:02.069Z,32.36
2019-06-26T12:22:02.136Z,32.11
2019-06-26T12:23:03.667Z,31.84
2019-06-26T12:25:02.232Z,31.61
2019-06-26T12:26:02.072Z,31.51
2019-06-26T12:27:01.962Z,31.46
2019-06-26T12:28:02.092Z,31.24
2019-06-26T12:29:02.189Z,31.14
2019-06-26T12:30:01.978Z,31.07
2019-06-26T12:31:02.027Z,31.10
2019-06-26T12:32:01.935Z,31.10
2019-06-26T12:34:01.840Z,31.02
2019-06-26T12:35:01.994Z,31.18
2019-06-26T12:36:01.803Z,31.14
2019-06-26T12:37:02.026Z,31.18
2019-06-26T12:38:01.968Z,31.05
2019-06-26T12:39:01.969Z,31.07
2019-06-26T12:40:02.043Z,30.88
2019-06-26T12:41:01.869Z,30.90
2019-06-26T12:42:02.026Z,31.05
2019-06-26T12:43:01.984Z,31.05
2019-06-26T12:47:01.929Z,31.34
2019-06-26T12:49:01.853Z,31.21
2019-06-26T12:50:01.919Z,31.07
2019-06-26T12:51:01.736Z,30.85
2019-06-26T12:52:01.843Z,30.78
2019-06-26T12:53:01.906Z,30.57
2019-06-26T12:54:02.634Z,30.46
2019-06-26T12:55:01.993Z,30.40
2019-06-26T12:56:01.927Z,30.32
2019-06-26T12:57:01.905Z,30.02
2019-06-26T12:58:12.656Z,30.03
2019-06-26T12:59:01.894Z,29.86
2019-06-26T13:00:01.801Z,29.87
2019-06-26T13:01:01.928Z,29.95
2019-06-26T13:02:01.871Z,30.25
2019-06-26T13:03:01.918Z,30.43
2019-06-26T13:04:01.782Z,30.87
2019-06-26T13:05:03.632Z,31.18
2019-06-26T13:07:01.813Z,31.87
2019-06-26T13:08:01.834Z,32.00
2019-06-26T13:09:01.857Z,32.18
2019-06-26T13:10:02.394Z,32.40
2019-06-26T13:11:01.681Z,32.71
2019-06-26T13:12:01.844Z,32.71
2019-06-26T13:14:03.198Z,32.95
2019-06-26T13:15:01.872Z,32.86
2019-06-26T13:16:01.835Z,32.90
2019-06-26T13:17:02.385Z,32.74
2019-06-26T13:18:01.873Z,32.95
2019-06-26T13:19:01.871Z,32.73
2019-06-26T13:20:01.834Z,32.68
2019-06-26T13:22:01.942Z,33.45
2019-06-26T13:23:01.828Z,33.58
2019-06-26T13:24:01.791Z,33.80
2019-06-26T13:25:01.826Z,34.01
2019-06-26T13:26:01.821Z,34.38
2019-06-26T13:27:01.847Z,35.17
2019-06-26T13:28:01.898Z,36.00
2019-06-26T13:29:01.853Z,36.58
2019-06-26T13:30:01.838Z,37.10
2019-06-26T13:31:01.832Z,37.97
2019-06-26T13:33:01.757Z,38.40
2019-06-26T13:34:01.827Z,38.99
2019-06-26T13:36:01.827Z,40.50
2019-06-26T13:37:01.747Z,41.00
2019-06-26T13:38:01.865Z,40.78
2019-06-26T13:39:03.628Z,40.27
2019-06-26T13:40:02.482Z,39.67
2019-06-26T13:41:01.826Z,39.71
2019-06-26T13:43:01.877Z,40.61
2019-06-26T13:44:01.830Z,39.86
2019-06-26T13:45:01.845Z,39.12
2019-06-26T13:47:02.699Z,37.32
2019-06-26T13:48:01.985Z,36.42
2019-06-26T13:49:01.812Z,35.34
2019-06-26T13:50:01.626Z,34.75
2019-06-26T13:51:09.535Z,34.27
2019-06-26T13:52:02.403Z,33.57
2019-06-26T13:53:01.826Z,32.97
2019-06-26T13:54:01.809Z,32.60
2019-06-26T13:55:01.780Z,32.18
2019-06-26T13:56:01.764Z,31.78
2019-06-26T13:57:01.768Z,31.43
2019-06-26T14:00:01.652Z,30.03
2019-06-26T14:01:01.718Z,29.65
2019-06-26T14:02:01.669Z,29.34
2019-06-26T14:03:01.747Z,28.93
2019-06-26T14:04:01.716Z,28.52
2019-06-26T14:06:01.443Z,27.96
2019-06-26T14:07:01.682Z,27.63
2019-06-26T14:08:01.653Z,27.42
2019-06-26T14:09:01.539Z,27.14
2019-06-26T14:10:04.634Z,26.80
2019-06-26T14:11:01.732Z,26.51
2019-06-26T14:12:01.773Z,26.25
2019-06-26T14:13:02.085Z,26.03
2019-06-26T14:14:01.478Z,25.88
2019-06-26T14:15:01.668Z,25.69
2019-06-26T14:16:01.713Z,25.41
2019-06-26T14:17:01.712Z,25.33
2019-06-26T14:18:01.399Z,25.17
2019-06-26T14:19:01.582Z,25.17
2019-06-26T14:20:01.986Z,24.95
2019-06-26T14:21:02.968Z,24.84
2019-06-26T14:22:01.547Z,24.70
2019-06-26T14:23:01.426Z,24.57
2019-06-26T14:24:01.463Z,24.32
2019-06-26T14:25:01.331Z,24.26
2019-06-26T14:26:01.929Z,24.13